Time;durP1;ratioP1;P1;durP2;ratioP2;P2;SDS_P1;SDS_P2;PMS_P1;PMS_P2;Temp;Humidity;BMP_temperature;BMP_pressure;BME280_temperature;BME280_humidity;BME280_pressure;Samples;Min_cycle;Max_cycle;Signal;HPM_P1;HPM_P2
2022/07/25 00:01:17;;;;;;;3.08;2.80;;;22.80;99.90;;;;;;6138939;23;20036;-77
2022/07/25 00:04:11;;;;;;;2.80;2.60;;;22.80;99.90;;;;;;6135952;23;20088;-78
2022/07/25 00:06:54;;;;;;;3.35;3.00;;;22.80;99.90;;;;;;6155717;23;20181;-76
2022/07/25 00:09:27;;;;;;;2.92;2.72;;;22.80;99.90;;;;;;6138092;23;20196;-75
2022/07/25 00:11:53;;;;;;;2.92;2.65;;;22.80;99.90;;;;;;6137975;23;20206;-77
2022/07/25 00:14:19;;;;;;;3.70;3.15;;;22.70;99.90;;;;;;6137488;23;20043;-77
2022/07/25 00:16:47;;;;;;;3.35;3.05;;;22.80;99.90;;;;;;6136968;23;20251;-77
2022/07/25 00:19:29;;;;;;;4.25;3.70;;;22.80;99.90;;;;;;6161954;23;20048;-77
2022/07/25 00:25:34;;;;;;;3.40;2.97;;;22.80;99.90;;;;;;6161474;23;20020;-76
2022/07/25 00:28:08;;;;;;;3.92;3.53;;;22.80;99.90;;;;;;6162443;23;20013;-79
2022/07/25 00:30:37;;;;;;;3.45;3.15;;;22.80;99.90;;;;;;6137218;23;20298;-78
2022/07/25 00:33:13;;;;;;;5.15;3.38;;;22.80;99.90;;;;;;6137588;23;20013;-77
2022/07/25 00:35:38;;;;;;;3.95;3.53;;;22.80;99.90;;;;;;6114528;23;20029;-78
2022/07/25 00:38:04;;;;;;;4.43;3.40;;;22.80;99.90;;;;;;6137595;23;20053;-76
2022/07/25 00:40:57;;;;;;;5.00;3.58;;;22.80;99.90;;;;;;6088251;23;20008;-79
2022/07/25 00:43:22;;;;;;;4.00;3.60;;;22.70;99.90;;;;;;6138277;23;20334;-77
2022/07/25 00:45:48;;;;;;;3.70;3.40;;;22.70;99.90;;;;;;6134404;23;20018;-77
2022/07/25 00:48:14;;;;;;;3.75;3.45;;;22.70;99.90;;;;;;6110931;23;20013;-77
2022/07/25 00:50:40;;;;;;;4.28;3.80;;;22.60;99.90;;;;;;6135782;23;20028;-78
2022/07/25 00:53:05;;;;;;;4.60;3.70;;;22.60;99.90;;;;;;6109985;23;20044;-76
2022/07/25 00:55:32;;;;;;;4.15;3.75;;;22.60;99.90;;;;;;6135409;23;20188;-78
2022/07/25 00:57:58;;;;;;;4.68;3.58;;;22.60;99.90;;;;;;6135284;23;20025;-77
2022/07/25 01:00:24;;;;;;;4.80;4.00;;;22.60;99.90;;;;;;6135610;23;20096;-76
2022/07/25 01:02:49;;;;;;;5.13;4.20;;;22.50;99.90;;;;;;6159345;23;20204;-78
2022/07/25 01:05:18;;;;;;;5.47;4.97;;;22.50;99.90;;;;;;6110752;23;20044;-77
2022/07/25 01:07:45;;;;;;;5.18;4.68;;;22.40;99.90;;;;;;6135828;23;20481;-77
2022/07/25 01:10:11;;;;;;;6.18;5.25;;;22.40;99.90;;;;;;6134605;23;20021;-77
2022/07/25 01:13:01;;;;;;;6.18;5.03;;;22.40;99.90;;;;;;6157845;23;20305;-77
2022/07/25 01:15:27;;;;;;;5.80;4.95;;;22.30;99.90;;;;;;6134542;23;20507;-77
2022/07/25 01:17:52;;;;;;;6.00;5.20;;;22.20;99.90;;;;;;6135128;23;20021;-76
2022/07/25 01:20:27;;;;;;;6.72;6.10;;;22.20;99.90;;;;;;6134990;23;20017;-77
2022/07/25 01:22:53;;;;;;;6.18;5.57;;;22.20;99.90;;;;;;6135798;23;20040;-76
2022/07/25 01:25:20;;;;;;;7.07;5.80;;;22.10;99.90;;;;;;6161695;23;20167;-77
2022/07/25 01:27:47;;;;;;;6.32;5.63;;;22.10;99.90;;;;;;6161581;23;20014;-77
2022/07/25 01:30:16;;;;;;;6.57;5.95;;;22.00;99.90;;;;;;6136292;23;20018;-77
2022/07/25 01:32:54;;;;;;;6.72;6.10;;;22.10;99.90;;;;;;6137044;23;20021;-78
2022/07/25 01:35:19;;;;;;;6.65;5.82;;;22.00;99.90;;;;;;6160861;23;20211;-76
2022/07/25 01:37:45;;;;;;;13.10;6.72;;;22.00;99.90;;;;;;6161211;23;20020;-77
2022/07/25 01:40:11;;;;;;;7.05;6.35;;;21.90;99.90;;;;;;6112126;23;20005;-76
2022/07/25 01:42:37;;;;;;;7.85;7.05;;;21.90;99.90;;;;;;6110654;23;20207;-76
2022/07/25 01:48:39;;;;;;;7.50;6.70;;;21.80;99.90;;;;;;6084316;23;20036;-78
2022/07/25 01:51:13;;;;;;;8.30;6.63;;;21.70;99.90;;;;;;6160717;23;20016;-78
2022/07/25 01:53:40;;;;;;;8.45;7.30;;;21.70;99.90;;;;;;6111876;23;20021;-77
2022/07/25 01:56:07;;;;;;;9.20;7.00;;;21.70;99.90;;;;;;6111158;23;20375;-79
2022/07/25 01:58:33;;;;;;;7.82;6.93;;;21.70;99.90;;;;;;6113384;23;20069;-77
2022/07/25 02:01:05;;;;;;;8.27;7.45;;;21.60;99.90;;;;;;6135229;23;20333;-78
2022/07/25 02:07:20;;;;;;;8.57;7.32;;;21.60;99.90;;;;;;6125992;23;20028;-77
2022/07/25 02:09:46;;;;;;;9.20;7.90;;;21.50;99.90;;;;;;6111790;23;20013;-78
2022/07/25 02:12:11;;;;;;;9.27;7.68;;;21.50;99.90;;;;;;6112901;23;20247;-77
2022/07/25 02:14:37;;;;;;;8.45;7.68;;;21.50;99.90;;;;;;6110959;23;20048;-77
2022/07/25 02:17:03;;;;;;;8.65;7.75;;;21.50;99.90;;;;;;6110862;23;20009;-75
2022/07/25 02:19:32;;;;;;;8.35;7.55;;;21.40;99.90;;;;;;6161927;23;20057;-75
2022/07/25 02:21:58;;;;;;;9.90;8.07;;;21.40;99.90;;;;;;6135491;23;20021;-79
2022/07/25 02:24:47;;;;;;;8.68;7.78;;;21.40;99.90;;;;;;6161776;23;20034;-78
2022/07/25 02:27:22;;;;;;;9.35;8.40;;;21.40;99.90;;;;;;6115456;23;20044;-79
2022/07/25 02:30:07;;;;;;;8.55;7.47;;;21.40;99.90;;;;;;6092942;23;20073;-79
2022/07/25 02:33:09;;;;;;;9.80;7.82;;;21.30;99.90;;;;;;6145487;23;20047;-77
2022/07/25 02:36:01;;;;;;;10.55;8.20;;;21.30;99.90;;;;;;6161593;23;20017;-77
2022/07/25 02:41:52;;;;;;;8.35;7.22;;;21.00;99.90;;;;;;6150245;23;20019;-77
2022/07/25 02:52:15;;;;;;;7.35;6.63;;;21.40;99.90;;;;;;5843144;24;20346;-77
2022/07/25 02:54:58;;;;;;;8.10;6.80;;;20.40;99.90;;;;;;5907991;24;20017;-77
2022/07/25 02:57:26;;;;;;;8.20;7.40;;;20.40;99.90;;;;;;5908263;24;20017;-77
2022/07/25 02:59:52;;;;;;;7.82;7.03;;;20.40;99.90;;;;;;5991851;23;20039;-76
2022/07/25 03:06:28;;;;;;;;;;;;;;;;;;;;;
2022/07/25 03:09:17;;;;;;;8.80;7.53;;;20.50;99.90;;;;;;5988520;23;20016;-78
2022/07/25 03:11:42;;;;;;;8.23;6.95;;;20.40;99.90;;;;;;5943103;24;20188;-77
2022/07/25 03:14:10;;;;;;;7.97;7.05;;;19.80;99.90;;;;;;5942370;23;20023;-79
2022/07/25 03:16:36;;;;;;;8.02;7.22;;;20.50;99.90;;;;;;6077919;23;20036;-80
2022/07/25 03:19:02;;;;;;;9.40;8.32;;;20.60;99.90;;;;;;6083410;23;20022;-80
2022/07/25 03:21:45;;;;;;;7.85;6.97;;;20.50;99.90;;;;;;6107464;23;20064;-77
2022/07/25 03:24:11;;;;;;;7.88;7.18;;;20.60;99.90;;;;;;6074034;23;20249;-77
2022/07/25 03:27:22;;;;;;;8.77;7.18;;;20.50;99.90;;;;;;6078071;23;20014;-78
2022/07/25 03:29:57;;;;;;;9.07;7.97;;;20.50;99.90;;;;;;6055269;23;20247;-77
2022/07/25 03:33:20;;;;;;;6.88;6.28;;;20.40;99.90;;;;;;6107497;23;20348;-76
2022/07/25 03:40:27;;;;;;;;;;;;;;;;;;;;;
2022/07/25 03:43:35;;;;;;;8.30;7.18;;;20.50;99.90;;;;;;5958737;24;20075;-77
2022/07/25 03:46:46;;;;;;;8.65;7.75;;;20.40;99.90;;;;;;5981188;23;20015;-77
2022/07/25 03:49:51;;;;;;;8.60;7.72;;;20.40;99.90;;;;;;6002020;23;20312;-78
2022/07/25 03:57:23;;;;;;;7.70;7.00;;;20.30;99.90;;;;;;5988069;24;20063;-78
2022/07/25 04:19:11;;;;;;;11.75;9.13;;;20.20;99.90;;;;;;5941110;24;20498;-75
2022/07/25 04:21:49;;;;;;;9.60;8.40;;;20.40;99.90;;;;;;6013998;23;20070;-76
2022/07/25 04:24:22;;;;;;;9.70;8.68;;;20.30;99.90;;;;;;6019739;23;20070;-77
2022/07/25 04:26:53;;;;;;;8.70;7.85;;;20.30;99.90;;;;;;6077488;23;20020;-76
2022/07/25 04:29:19;;;;;;;11.85;8.30;;;20.30;99.90;;;;;;6142651;23;20027;-76
2022/07/25 04:31:53;;;;;;;10.10;8.88;;;20.30;99.90;;;;;;6169851;23;20016;-77
2022/07/25 04:34:30;;;;;;;;;;;20.30;99.90;;;;;;6144400;23;20020;-77
2022/07/25 04:36:56;;;;;;;11.30;9.77;;;21.00;99.90;;;;;;6145204;23;19908;-78
2022/07/25 04:40:21;;;;;;;10.60;9.50;;;20.50;99.90;;;;;;6143436;23;20202;-77
2022/07/25 04:42:36;;;;;;;10.48;8.90;;;20.40;99.90;;;;;;6159647;23;20035;-76
2022/07/25 04:45:03;;;;;;;9.93;8.95;;;20.50;99.90;;;;;;6142154;23;20009;-75
2022/07/25 04:47:32;;;;;;;10.25;8.48;;;20.50;99.90;;;;;;6170977;23;20012;-76
2022/07/25 04:49:58;;;;;;;9.55;8.57;;;20.70;99.90;;;;;;6148593;23;20314;-75
2022/07/25 04:52:23;;;;;;;9.55;8.65;;;20.70;99.90;;;;;;6124909;23;20013;-76
2022/07/25 04:55:34;;;;;;;;;;;;;;;;;;;;;
2022/07/25 04:58:10;;;;;;;10.60;9.00;;;20.90;99.90;;;;;;6195042;23;20013;-76
2022/07/25 05:00:36;;;;;;;11.10;8.98;;;20.90;99.90;;;;;;6167450;23;20045;-75
2022/07/25 05:04:10;;;;;;;9.50;8.50;;;20.90;99.90;;;;;;6118112;23;20037;-74
2022/07/25 05:06:39;;;;;;;10.20;9.20;;;20.90;99.90;;;;;;5971974;23;20022;-77
2022/07/25 05:09:08;;;;;;;9.60;8.60;;;20.90;99.90;;;;;;5969248;23;20019;-77
2022/07/25 05:11:36;;;;;;;11.80;9.52;;;20.90;99.90;;;;;;5998311;23;20062;-75
2022/07/25 05:14:02;;;;;;;11.23;9.82;;;20.90;99.90;;;;;;6089095;23;20022;-75
2022/07/25 05:16:28;;;;;;;9.98;9.02;;;21.00;99.90;;;;;;6111682;23;20049;-75
2022/07/25 05:18:53;;;;;;;10.00;9.00;;;21.00;99.90;;;;;;6112627;23;20021;-76
2022/07/25 05:21:19;;;;;;;10.48;9.48;;;21.00;99.90;;;;;;6063851;23;20199;-76
2022/07/25 05:23:44;;;;;;;10.32;9.23;;;21.10;99.90;;;;;;6113079;23;20031;-75
2022/07/25 05:26:13;;;;;;;9.85;8.85;;;21.10;99.90;;;;;;6086661;23;20020;-74
2022/07/25 05:28:44;;;;;;;10.50;9.40;;;21.10;99.90;;;;;;6112826;23;20025;-78
2022/07/25 05:31:09;;;;;;;10.18;9.05;;;21.20;99.90;;;;;;6135820;23;20019;-75
2022/07/25 05:33:36;;;;;;;11.40;9.48;;;21.20;99.90;;;;;;6110119;23;20021;-75
2022/07/25 05:36:03;;;;;;;11.02;9.43;;;21.30;99.90;;;;;;6111549;23;20041;-76
2022/07/25 05:38:29;;;;;;;11.30;10.10;;;21.30;99.90;;;;;;6084595;23;20160;-76
2022/07/25 05:40:55;;;;;;;11.73;10.13;;;21.40;99.90;;;;;;6086108;23;20032;-76
2022/07/25 05:44:08;;;;;;;12.45;10.50;;;21.50;99.90;;;;;;6133202;23;20009;-76
2022/07/25 05:54:27;;;;;;;10.10;8.98;;;21.80;99.90;;;;;;5916485;24;20619;-78
2022/07/25 05:57:13;;;;;;;10.50;9.50;;;21.70;99.90;;;;;;6028587;23;20010;-76
2022/07/25 05:59:41;;;;;;;11.35;10.15;;;21.60;99.90;;;;;;6025622;23;20114;-79
2022/07/25 06:02:07;;;;;;;10.40;9.40;;;21.70;99.90;;;;;;5999716;23;20022;-77
2022/07/25 06:04:33;;;;;;;11.43;9.50;;;21.70;99.90;;;;;;6096337;23;20173;-78
2022/07/25 06:06:58;;;;;;;11.98;10.48;;;21.70;99.90;;;;;;6136491;23;20025;-76
2022/07/25 06:09:24;;;;;;;11.18;10.07;;;21.80;99.90;;;;;;6137303;23;20002;-78
2022/07/25 06:11:52;;;;;;;11.25;10.07;;;21.80;99.90;;;;;;6112813;23;20009;-76
2022/07/25 06:14:18;;;;;;;11.43;9.98;;;21.80;99.90;;;;;;6136846;23;20017;-77
2022/07/25 06:16:44;;;;;;;12.52;10.55;;;22.00;99.90;;;;;;6135857;23;20044;-77
2022/07/25 06:19:09;;;;;;;11.93;10.73;;;22.10;99.90;;;;;;6137578;23;20021;-77
2022/07/25 06:21:35;;;;;;;12.95;9.23;;;22.20;99.90;;;;;;6140120;23;20040;-77
2022/07/25 06:24:01;;;;;;;11.38;10.18;;;22.20;99.90;;;;;;6115589;23;20006;-79
2022/07/25 06:26:27;;;;;;;10.55;9.48;;;22.20;99.90;;;;;;6113367;23;20009;-80
2022/07/25 06:28:53;;;;;;;10.77;9.73;;;22.30;99.90;;;;;;6115870;23;20028;-77
2022/07/25 06:31:19;;;;;;;10.98;9.70;;;22.30;99.90;;;;;;6137391;23;20021;-79
2022/07/25 06:33:45;;;;;;;11.13;9.85;;;22.20;99.90;;;;;;6140946;23;20013;-77
2022/07/25 06:36:10;;;;;;;10.32;9.27;;;22.30;99.90;;;;;;6137892;23;20021;-78
2022/07/25 06:38:36;;;;;;;14.13;11.05;;;22.30;99.90;;;;;;6140001;23;20060;-75
2022/07/25 06:41:02;;;;;;;10.65;9.60;;;22.30;99.90;;;;;;6139597;23;20215;-76
2022/07/25 06:43:44;;;;;;;10.88;9.85;;;22.40;99.90;;;;;;6163742;23;20064;-76
2022/07/25 06:46:15;;;;;;;10.57;9.45;;;22.30;99.90;;;;;;6138716;23;20089;-77
2022/07/25 06:48:41;;;;;;;10.80;9.63;;;22.50;99.90;;;;;;6140297;23;20255;-77
2022/07/25 06:51:07;;;;;;;10.98;9.88;;;22.50;99.90;;;;;;6110574;23;20021;-75
2022/07/25 06:53:33;;;;;;;10.20;9.20;;;22.70;99.90;;;;;;6136969;23;20017;-76
2022/07/25 06:56:05;;;;;;;10.75;9.65;;;22.80;99.90;;;;;;6137737;23;20014;-77
2022/07/25 06:58:34;;;;;;;11.02;9.80;;;23.00;99.90;;;;;;6159670;23;20022;-75
2022/07/25 07:01:00;;;;;;;11.18;10.07;;;23.40;99.90;;;;;;6139830;23;20325;-75
2022/07/25 07:03:38;;;;;;;10.70;9.65;;;23.70;99.90;;;;;;6139132;23;20037;-74
2022/07/25 07:06:18;;;;;;;11.00;9.88;;;23.80;99.90;;;;;;6148990;23;20055;-78
2022/07/25 07:08:44;;;;;;;9.75;8.80;;;24.10;99.90;;;;;;6142458;23;20020;-76
2022/07/25 07:11:12;;;;;;;10.13;9.13;;;24.20;99.90;;;;;;6119885;23;20012;-76
2022/07/25 07:13:37;;;;;;;10.43;9.43;;;24.30;99.90;;;;;;6143656;23;20072;-75
2022/07/25 07:16:04;;;;;;;10.38;9.35;;;24.30;99.90;;;;;;6144656;23;20043;-78
2022/07/25 07:18:30;;;;;;;10.20;9.30;;;24.30;99.90;;;;;;6142004;23;20024;-78
2022/07/25 07:20:55;;;;;;;9.77;8.90;;;24.20;99.90;;;;;;6119060;23;20008;-77
2022/07/25 07:23:23;;;;;;;10.50;9.40;;;24.20;99.90;;;;;;6119404;23;20013;-79
2022/07/25 07:25:49;;;;;;;10.63;9.35;;;24.10;99.90;;;;;;6168270;23;20032;-77
2022/07/25 07:28:15;;;;;;;9.82;8.90;;;24.10;99.90;;;;;;6143892;23;20012;-76
2022/07/25 07:30:41;;;;;;;10.05;8.90;;;24.20;99.90;;;;;;6117764;23;20046;-76
2022/07/25 07:33:07;;;;;;;11.90;10.07;;;24.40;99.90;;;;;;6119969;23;20064;-65
2022/07/25 07:35:33;;;;;;;12.07;9.50;;;24.40;99.90;;;;;;6168121;23;20013;-78
2022/07/25 07:37:58;;;;;;;11.40;10.20;;;24.40;99.90;;;;;;6168207;23;20299;-78
2022/07/25 07:40:25;;;;;;;11.20;10.10;;;24.40;99.90;;;;;;6119561;23;20304;-78
2022/07/25 07:42:52;;;;;;;10.23;9.20;;;24.40;99.90;;;;;;6142094;23;20319;-80
2022/07/25 07:45:20;;;;;;;10.68;9.57;;;24.50;99.90;;;;;;6140458;23;20132;-76
2022/07/25 07:47:47;;;;;;;9.93;8.93;;;24.40;99.90;;;;;;6167291;23;20093;-76
2022/07/25 07:50:25;;;;;;;9.85;8.82;;;24.60;99.90;;;;;;6141533;23;20014;-77
2022/07/25 07:52:53;;;;;;;9.75;8.75;;;24.60;99.90;;;;;;6165421;23;20019;-76
2022/07/25 07:58:06;;;;;;;8.90;8.02;;;24.70;99.90;;;;;;6167624;23;20017;-78
2022/07/25 08:00:35;;;;;;;9.48;8.25;;;24.70;99.90;;;;;;6142876;23;20036;-76
2022/07/25 08:03:01;;;;;;;12.95;7.55;;;24.70;99.90;;;;;;6168445;23;20064;-79
2022/07/25 08:05:30;;;;;;;10.90;7.70;;;24.70;99.90;;;;;;6137494;23;20176;-78
2022/07/25 08:07:56;;;;;;;8.40;7.50;;;24.60;99.90;;;;;;6138649;23;20049;-76
2022/07/25 08:10:24;;;;;;;7.40;6.60;;;24.50;99.90;;;;;;6161029;23;20180;-76
2022/07/25 08:12:50;;;;;;;7.63;6.55;;;24.40;99.90;;;;;;6137778;23;20009;-77
2022/07/25 08:15:18;;;;;;;7.55;6.70;;;24.50;99.90;;;;;;6136885;23;20025;-78
2022/07/25 08:17:44;;;;;;;7.60;6.03;;;24.40;99.90;;;;;;6160695;23;20018;-78
2022/07/25 08:20:10;;;;;;;7.55;6.50;;;24.40;99.90;;;;;;6136918;23;20044;-77
2022/07/25 08:22:47;;;;;;;6.47;5.80;;;24.50;99.90;;;;;;6162223;23;20341;-75
2022/07/25 08:25:15;;;;;;;9.05;6.25;;;24.40;99.90;;;;;;6138117;23;20064;-76
2022/07/25 08:27:41;;;;;;;7.25;6.55;;;24.30;99.90;;;;;;6135602;23;20060;-77
2022/07/25 08:30:08;;;;;;;9.60;6.22;;;24.30;99.90;;;;;;6160019;23;20397;-76
2022/07/25 08:32:34;;;;;;;6.78;6.07;;;24.40;99.90;;;;;;6161532;23;20041;-78
2022/07/25 08:35:42;;;;;;;8.68;6.38;;;24.50;99.90;;;;;;6161430;23;20187;-78
2022/07/25 08:38:10;;;;;;;6.90;6.00;;;24.70;99.90;;;;;;6112595;23;20013;-79
2022/07/25 08:40:38;;;;;;;7.20;6.47;;;24.70;99.90;;;;;;6113506;23;20010;-76
2022/07/25 08:43:04;;;;;;;6.43;5.82;;;24.60;99.90;;;;;;6162825;23;20017;-76
2022/07/25 08:46:19;;;;;;;10.20;6.50;;;24.50;99.90;;;;;;6137291;23;20254;-76
2022/07/25 08:48:45;;;;;;;8.05;5.50;;;24.30;99.90;;;;;;6133164;23;20013;-76
2022/07/25 08:51:11;;;;;;;9.70;6.22;;;24.20;99.90;;;;;;6157318;23;20121;-78
2022/07/25 08:53:37;;;;;;;7.53;5.88;;;24.10;99.90;;;;;;6155951;23;20021;-77
2022/07/25 08:56:05;;;;;;;8.13;6.25;;;23.90;99.90;;;;;;6134541;23;20017;-78
2022/07/25 08:58:31;;;;;;;6.78;5.55;;;23.90;99.90;;;;;;6137422;23;20068;-76
2022/07/25 09:00:57;;;;;;;8.40;5.40;;;23.70;99.90;;;;;;6136209;23;20204;-76
2022/07/25 09:03:25;;;;;;;6.20;5.45;;;23.70;99.90;;;;;;6137812;23;20010;-76
2022/07/25 09:05:53;;;;;;;6.63;6.03;;;23.70;99.90;;;;;;6137738;23;20013;-79
2022/07/25 09:08:19;;;;;;;7.78;5.43;;;23.80;99.90;;;;;;6113091;23;20029;-75
2022/07/25 09:10:50;;;;;;;6.10;5.50;;;23.70;99.90;;;;;;6137441;23;20287;-77
2022/07/25 09:13:21;;;;;;;7.05;6.20;;;23.70;99.90;;;;;;6161522;23;20047;-76
2022/07/25 09:16:13;;;;;;;5.95;5.22;;;23.70;99.90;;;;;;6156791;23;20209;-77
2022/07/25 09:18:45;;;;;;;6.07;5.47;;;23.70;99.90;;;;;;6136450;23;20069;-75
2022/07/25 09:21:25;;;;;;;7.28;6.38;;;23.90;99.90;;;;;;6157990;23;20475;-76
2022/07/25 09:24:25;;;;;;;6.32;5.72;;;23.90;99.90;;;;;;6134944;23;20036;-78
2022/07/25 09:27:00;;;;;;;7.10;5.90;;;23.90;99.90;;;;;;6161723;23;20075;-77
2022/07/25 09:30:10;;;;;;;6.40;5.18;;;24.20;99.90;;;;;;6157704;23;20224;-76
2022/07/25 09:32:45;;;;;;;8.45;4.03;;;25.00;99.90;;;;;;6151510;23;20076;-77
2022/07/25 09:35:19;;;;;;;4.55;4.10;;;25.40;99.90;;;;;;6137883;23;20010;-78
2022/07/25 09:37:56;;;;;;;5.82;4.72;;;25.40;99.90;;;;;;6111812;23;20021;-79
2022/07/25 09:40:28;;;;;;;4.63;3.58;;;25.30;99.90;;;;;;6115155;23;20009;-77
2022/07/25 09:42:54;;;;;;;4.40;3.50;;;24.90;99.90;;;;;;6113272;23;20009;-76
2022/07/25 09:45:19;;;;;;;3.83;3.40;;;25.10;99.90;;;;;;6161944;23;20057;-77
2022/07/25 09:47:51;;;;;;;4.00;3.42;;;25.40;99.90;;;;;;6161534;23;20028;-78
2022/07/25 09:50:18;;;;;;;4.20;3.33;;;25.80;99.90;;;;;;6158731;23;20017;-77
2022/07/25 09:52:45;;;;;;;4.88;3.10;;;25.80;99.90;;;;;;6161558;23;20016;-79
2022/07/25 09:55:13;;;;;;;3.42;2.70;;;25.70;99.90;;;;;;6161675;23;20021;-77
2022/07/25 09:57:39;;;;;;;3.17;2.53;;;25.70;99.90;;;;;;6160982;23;20040;-77
2022/07/25 10:00:07;;;;;;;3.58;2.25;;;26.00;99.90;;;;;;6161710;23;20015;-78
2022/07/25 10:02:51;;;;;;;2.92;2.45;;;25.80;99.90;;;;;;6137440;23;20069;-78
2022/07/25 10:05:55;;;;;;;3.15;2.03;;;25.90;99.90;;;;;;6136281;23;20072;-77
2022/07/25 10:08:22;;;;;;;4.17;2.03;;;25.80;99.90;;;;;;6140734;23;20030;-78
2022/07/25 10:10:48;;;;;;;2.85;2.03;;;25.80;99.90;;;;;;6136406;23;20024;-75
2022/07/25 10:13:27;;;;;;;2.88;2.10;;;25.80;99.90;;;;;;6111082;23;20013;-79
2022/07/25 10:15:53;;;;;;;2.33;1.80;;;26.00;99.90;;;;;;6161996;23;20013;-79
2022/07/25 10:18:21;;;;;;;2.70;2.03;;;26.50;99.90;;;;;;6136155;23;20044;-77
2022/07/25 10:20:48;;;;;;;2.78;2.08;;;26.40;99.90;;;;;;6158907;23;20044;-78
2022/07/25 10:23:26;;;;;;;2.33;2.03;;;26.50;99.90;;;;;;6132912;23;20073;-80
2022/07/25 10:26:19;;;;;;;2.05;1.77;;;26.20;99.90;;;;;;6160793;23;20013;-76
2022/07/25 10:28:49;;;;;;;2.30;1.80;;;25.60;99.90;;;;;;6156942;23;20203;-76
2022/07/25 10:31:23;;;;;;;2.80;1.90;;;25.40;99.90;;;;;;6135508;23;20014;-76
2022/07/25 10:34:08;;;;;;;2.63;1.70;;;24.90;99.90;;;;;;6161243;23;20013;-78
2022/07/25 10:36:46;;;;;;;2.75;1.90;;;24.70;99.90;;;;;;6136655;23;20013;-79
2022/07/25 10:39:17;;;;;;;2.60;1.92;;;24.50;99.90;;;;;;6160507;23;20017;-76
2022/07/25 10:41:53;;;;;;;4.55;1.90;;;24.40;99.90;;;;;;6135467;23;20024;-75
2022/07/25 10:44:18;;;;;;;2.67;2.10;;;24.30;99.90;;;;;;6161172;23;20195;-77
2022/07/25 10:46:45;;;;;;;2.22;1.98;;;24.10;99.90;;;;;;6134466;23;20018;-77
2022/07/25 10:49:26;;;;;;;3.28;2.15;;;24.30;99.90;;;;;;6107314;23;20021;-77
2022/07/25 10:51:57;;;;;;;2.60;2.05;;;24.30;99.90;;;;;;6112375;23;20072;-77
2022/07/25 10:54:23;;;;;;;4.13;2.10;;;24.40;99.90;;;;;;6136320;23;20024;-78
2022/07/25 10:57:15;;;;;;;4.05;2.05;;;24.20;99.90;;;;;;6137022;23;20013;-74
2022/07/25 10:59:45;;;;;;;3.70;2.00;;;24.20;99.90;;;;;;6159085;23;20077;-76
2022/07/25 11:02:17;;;;;;;4.05;1.75;;;24.00;99.90;;;;;;6161696;23;20010;-76
2022/07/25 11:05:06;;;;;;;3.20;2.03;;;23.80;99.90;;;;;;6138188;23;20072;-78
2022/07/25 11:07:48;;;;;;;4.90;2.03;;;23.70;99.90;;;;;;6125579;23;20029;-76
2022/07/25 11:10:14;;;;;;;7.45;2.15;;;23.60;99.90;;;;;;6137564;23;20017;-76
2022/07/25 11:12:43;;;;;;;3.85;2.05;;;23.60;99.90;;;;;;6161933;23;20232;-76
2022/07/25 11:15:14;;;;;;;4.03;2.25;;;23.70;99.90;;;;;;6137877;23;20020;-77
2022/07/25 11:17:49;;;;;;;2.65;2.30;;;24.00;99.90;;;;;;6162357;23;20020;-76
2022/07/25 11:20:18;;;;;;;4.18;2.42;;;23.90;99.90;;;;;;6137609;23;20069;-76
2022/07/25 11:22:54;;;;;;;3.85;2.30;;;24.10;99.90;;;;;;6161686;23;20072;-78
2022/07/25 11:25:22;;;;;;;3.20;2.40;;;24.30;99.90;;;;;;6137647;23;20017;-78
2022/07/25 11:28:00;;;;;;;5.22;2.50;;;24.70;99.90;;;;;;6113969;23;20014;-76
2022/07/25 11:30:34;;;;;;;4.70;2.38;;;24.80;99.90;;;;;;6138705;23;20021;-77
2022/07/25 11:33:00;;;;;;;5.55;2.90;;;24.70;99.90;;;;;;6159566;23;20022;-77
2022/07/25 11:35:33;;;;;;;4.35;2.45;;;24.40;99.90;;;;;;6137922;23;20013;-79
2022/07/25 11:38:02;;;;;;;4.72;2.65;;;24.20;99.90;;;;;;6162670;23;20023;-76
2022/07/25 11:40:30;;;;;;;3.53;2.47;;;24.20;99.90;;;;;;6138501;23;20009;-77
2022/07/25 11:43:00;;;;;;;4.90;2.42;;;24.20;99.90;;;;;;6136580;23;20018;-75
2022/07/25 11:45:28;;;;;;;3.95;2.30;;;24.20;99.90;;;;;;6136969;23;20060;-76
2022/07/25 11:48:09;;;;;;;5.93;2.70;;;24.00;99.90;;;;;;6160834;23;20225;-75
2022/07/25 11:50:38;;;;;;;4.28;2.22;;;24.00;99.90;;;;;;6136885;23;20025;-78
2022/07/25 11:53:06;;;;;;;5.43;2.33;;;24.00;99.90;;;;;;6134140;23;20354;-76
2022/07/25 11:55:39;;;;;;;7.63;2.63;;;24.00;99.90;;;;;;6160704;23;20013;-78
2022/07/25 11:58:05;;;;;;;5.63;2.10;;;24.40;99.90;;;;;;6137022;23;20189;-79
2022/07/25 12:00:49;;;;;;;4.63;2.35;;;24.70;99.90;;;;;;6137316;23;20009;-74
2022/07/25 12:03:19;;;;;;;4.35;2.33;;;24.70;99.90;;;;;;6135763;23;20300;-74
2022/07/25 12:05:45;;;;;;;5.00;2.30;;;24.50;99.90;;;;;;6161382;23;20013;-76
2022/07/25 12:08:16;;;;;;;3.70;2.15;;;24.40;99.90;;;;;;6159443;23;20214;-77
2022/07/25 12:10:46;;;;;;;4.27;2.23;;;24.20;99.90;;;;;;6161745;23;20057;-74
2022/07/25 12:13:32;;;;;;;6.43;2.22;;;24.00;99.90;;;;;;6134730;23;20029;-77
2022/07/25 12:15:58;;;;;;;6.18;2.67;;;23.90;99.90;;;;;;6136294;23;20210;-78
2022/07/25 12:18:25;;;;;;;6.53;2.63;;;23.70;99.90;;;;;;6111553;23;20104;-78
2022/07/25 12:20:52;;;;;;;6.15;2.42;;;23.70;99.90;;;;;;6137038;23;20032;-76
2022/07/25 12:23:17;;;;;;;7.45;2.50;;;23.90;99.90;;;;;;6160124;23;20018;-78
2022/07/25 12:25:45;;;;;;;7.05;2.40;;;23.50;99.90;;;;;;6136233;23;20018;-76
2022/07/25 12:28:11;;;;;;;4.45;2.28;;;23.70;99.90;;;;;;6136541;23;20075;-77
2022/07/25 12:30:39;;;;;;;7.63;2.05;;;23.90;99.90;;;;;;6111388;23;20017;-83
2022/07/25 12:33:06;;;;;;;5.15;2.30;;;24.60;99.90;;;;;;6135854;23;20013;-76
2022/07/25 12:35:32;;;;;;;4.90;1.77;;;24.90;99.90;;;;;;6157836;23;20013;-77
2022/07/25 12:37:58;;;;;;;6.15;2.20;;;24.90;99.90;;;;;;6133286;23;20346;-76
2022/07/25 12:40:26;;;;;;;5.40;2.10;;;24.70;99.90;;;;;;6162178;23;20020;-76
2022/07/25 12:42:52;;;;;;;5.05;2.05;;;24.60;99.90;;;;;;6115373;23;20287;-77
2022/07/25 12:45:18;;;;;;;6.05;1.92;;;24.80;99.90;;;;;;6138613;23;20010;-79
2022/07/25 12:47:45;;;;;;;4.85;2.28;;;25.20;99.90;;;;;;6161984;23;20299;-78
2022/07/25 12:50:12;;;;;;;3.60;1.70;;;25.10;99.90;;;;;;6138834;23;20021;-76
2022/07/25 12:52:38;;;;;;;3.67;2.13;;;25.70;99.90;;;;;;6134970;23;20327;-78
2022/07/25 12:55:06;;;;;;;5.20;1.60;;;25.60;99.90;;;;;;6136723;23;20024;-76
2022/07/25 12:57:34;;;;;;;3.75;1.70;;;25.20;99.90;;;;;;6159886;23;20072;-76
2022/07/25 13:00:00;;;;;;;4.50;1.70;;;25.20;99.90;;;;;;6137182;23;20018;-77
2022/07/25 13:02:26;;;;;;;5.80;1.67;;;25.10;99.90;;;;;;6162820;23;20009;-75
2022/07/25 13:04:51;;;;;;;5.93;1.90;;;25.00;99.90;;;;;;6116468;23;20295;-77
2022/07/25 13:07:17;;;;;;;3.80;1.70;;;25.00;99.90;;;;;;6138851;23;20045;-76
2022/07/25 13:09:43;;;;;;;4.47;1.65;;;25.10;99.90;;;;;;6138208;23;20020;-75
2022/07/25 13:12:09;;;;;;;4.60;1.70;;;24.90;99.90;;;;;;6161330;23;20013;-78
2022/07/25 13:14:34;;;;;;;3.35;1.85;;;24.70;99.90;;;;;;6136142;23;20013;-77
2022/07/25 13:17:00;;;;;;;5.35;2.00;;;24.70;99.90;;;;;;6136432;23;20013;-74
2022/07/25 13:19:29;;;;;;;5.63;2.03;;;24.70;99.90;;;;;;6134439;23;20013;-76
2022/07/25 13:21:55;;;;;;;5.53;1.92;;;24.60;99.90;;;;;;6111654;23;20072;-78
2022/07/25 13:24:20;;;;;;;6.25;1.73;;;24.40;99.90;;;;;;6135992;23;20227;-76
2022/07/25 13:26:46;;;;;;;2.88;1.48;;;24.40;99.90;;;;;;6111778;23;20068;-74
2022/07/25 13:29:12;;;;;;;5.90;2.17;;;24.30;99.90;;;;;;6135057;23;20026;-75
2022/07/25 13:31:39;;;;;;;9.45;1.80;;;24.10;99.90;;;;;;6135218;23;20272;-75
2022/07/25 13:34:06;;;;;;;4.47;1.70;;;24.10;99.90;;;;;;6136525;23;20028;-76
2022/07/25 13:36:37;;;;;;;4.45;1.67;;;24.00;99.90;;;;;;6110815;23;20068;-76
2022/07/25 13:39:06;;;;;;;5.25;1.70;;;24.00;99.90;;;;;;6160056;23;20017;-77
2022/07/25 13:41:32;;;;;;;6.10;1.83;;;23.80;99.90;;;;;;6135586;23;20227;-80
2022/07/25 13:43:57;;;;;;;3.75;1.60;;;23.80;99.90;;;;;;6135010;23;20010;-79
2022/07/25 13:46:23;;;;;;;4.63;2.08;;;23.70;99.90;;;;;;6133241;23;20018;-74
2022/07/25 13:48:49;;;;;;;6.45;2.00;;;23.70;99.90;;;;;;6135556;23;20120;-77
2022/07/25 13:51:15;;;;;;;4.95;1.85;;;23.60;99.90;;;;;;6110872;23;20235;-77
2022/07/25 13:53:43;;;;;;;6.32;2.00;;;23.50;99.90;;;;;;6159934;23;20014;-77
2022/07/25 13:56:10;;;;;;;7.63;2.05;;;23.50;99.90;;;;;;6134708;23;20020;-78
2022/07/25 13:58:36;;;;;;;3.13;1.65;;;23.30;99.90;;;;;;6159587;23;20013;-79
2022/07/25 14:01:01;;;;;;;3.42;2.03;;;23.40;99.90;;;;;;6135477;23;20100;-75
2022/07/25 14:03:27;;;;;;;5.72;2.30;;;23.40;99.90;;;;;;6158926;23;20041;-76
2022/07/25 14:05:53;;;;;;;5.60;2.45;;;23.50;99.90;;;;;;6159425;23;20013;-76
2022/07/25 14:08:18;;;;;;;5.72;2.53;;;23.50;99.90;;;;;;6158925;23;20048;-79
2022/07/25 14:10:44;;;;;;;6.57;2.08;;;23.50;99.90;;;;;;6159248;23;20068;-78
2022/07/25 14:13:11;;;;;;;3.63;1.85;;;23.40;99.90;;;;;;6134868;23;20017;-79
2022/07/25 14:15:37;;;;;;;3.45;1.85;;;23.30;99.90;;;;;;6134389;23;20014;-77